Terminal Aerodrome Forecast
Issued by NWS Tallahassee, FL

Home | Current Version | Previous Version | Text Only | Print | Product List | Glossary On
Versions: 1 2 3 4 5 6 7 8 9 10 11 12 13 14 15 16 17 18 19 20
000
FTUS42 KTAE 301126
TAFTLH
TAF
KTLH 301126Z 3012/0112 13003KT 4SM BR SCT001
      TEMPO 3012/3014 3/4SM BR BKN002
     FM301400 14007KT P6SM SCT030
     FM301900 18008KT P6SM SCT050
     FM010200 18003KT P6SM SCT250=

USA.gov is the U.S. government's official web portal to all federal, state and local government web resources and services.